createdAt,value
2022-11-05T00:02:20.668Z,95739.74
2022-11-05T00:05:00.866Z,95740.83
2022-11-05T00:07:51.035Z,95744.02
2022-11-05T00:10:26.436Z,95739.68
2022-11-05T00:13:11.773Z,95732.73
2022-11-05T00:15:51.438Z,95728.92
2022-11-05T00:18:19.814Z,95729.44
2022-11-05T00:20:47.923Z,95737.60
2022-11-05T00:23:31.944Z,95739.84
2022-11-05T00:26:02.260Z,95743.20
2022-11-05T00:28:32.152Z,95741.19
2022-11-05T00:31:04.779Z,95739.79
2022-11-05T00:33:33.188Z,95740.50
2022-11-05T00:36:03.189Z,95745.56
2022-11-05T00:38:31.230Z,95747.56
2022-11-05T00:40:59.496Z,95750.07
2022-11-05T00:43:43.693Z,95752.45
2022-11-05T00:46:11.752Z,95747.95
2022-11-05T00:48:53.511Z,95752.80
2022-11-05T00:51:22.721Z,95754.00
2022-11-05T00:53:51.033Z,95751.05
2022-11-05T00:56:18.934Z,95746.57
2022-11-05T00:58:47.006Z,95744.16
2022-11-05T01:01:15.775Z,95746.02
2022-11-05T01:03:51.441Z,95745.58
2022-11-05T01:06:19.982Z,95746.58
2022-11-05T01:08:49.005Z,95745.91
2022-11-05T01:11:35.063Z,95743.30
2022-11-05T01:14:05.450Z,95736.11
2022-11-05T01:16:33.895Z,95736.32
2022-11-05T01:19:04.163Z,95736.13
2022-11-05T01:21:32.314Z,95731.44
2022-11-05T01:24:01.256Z,95728.92
2022-11-05T01:26:29.327Z,95722.44
2022-11-05T01:29:00.720Z,95723.46
2022-11-05T01:31:29.191Z,95720.93
2022-11-05T01:33:57.182Z,95721.34
2022-11-05T01:36:25.182Z,95720.14
2022-11-05T01:38:53.175Z,95724.11
2022-11-05T01:41:21.261Z,95723.66
2022-11-05T01:43:52.782Z,95720.82
2022-11-05T01:46:27.848Z,95714.13
2022-11-05T01:49:03.266Z,95709.08
2022-11-05T01:51:32.358Z,95710.37
2022-11-05T01:54:05.275Z,95716.05
2022-11-05T01:56:47.990Z,95722.08
2022-11-05T01:59:26.294Z,95721.73
2022-11-05T02:01:55.092Z,95720.77
2022-11-05T02:04:30.617Z,95723.15
2022-11-05T02:06:59.689Z,95725.91
2022-11-05T02:09:34.943Z,95725.20
2022-11-05T02:12:03.522Z,95723.63
2022-11-05T02:14:31.524Z,95717.06
2022-11-05T02:17:17.827Z,95715.48
2022-11-05T02:20:10.445Z,95713.48
2022-11-05T02:23:04.713Z,95713.10
2022-11-05T02:26:11.947Z,95718.33
2022-11-05T02:29:04.864Z,95727.39
2022-11-05T02:32:05.395Z,95734.89
2022-11-05T02:34:52.469Z,95727.42
2022-11-05T02:37:42.568Z,95725.58
2022-11-05T02:40:42.925Z,95722.73
2022-11-05T02:43:28.039Z,95724.04
2022-11-05T02:46:20.997Z,95726.05
2022-11-05T02:49:04.324Z,95725.09
2022-11-05T02:51:48.023Z,95712.73
2022-11-05T02:54:38.776Z,95709.95
2022-11-05T02:57:07.204Z,95715.03
2022-11-05T02:59:34.976Z,95713.52
2022-11-05T03:02:03.976Z,95717.29
2022-11-05T03:04:32.515Z,95713.67
2022-11-05T03:07:17.249Z,95708.44
2022-11-05T03:10:07.140Z,95707.48
2022-11-05T03:13:04.391Z,95711.14
2022-11-05T03:15:55.006Z,95707.66
2022-11-05T03:18:39.555Z,95703.53
2022-11-05T03:21:25.955Z,95701.12
2022-11-05T03:24:02.222Z,95698.56
2022-11-05T03:26:35.840Z,95705.52
2022-11-05T03:29:11.680Z,95702.98
2022-11-05T03:31:41.796Z,95707.04
2022-11-05T03:34:13.504Z,95713.45
2022-11-05T03:36:47.153Z,95722.44
2022-11-05T03:39:21.882Z,95725.23
2022-11-05T03:41:54.005Z,95731.60
2022-11-05T03:44:39.115Z,95728.92
2022-11-05T03:47:11.697Z,95731.52
2022-11-05T03:49:50.944Z,95735.79
2022-11-05T03:52:23.111Z,95735.02
2022-11-05T03:54:50.959Z,95732.27
2022-11-05T03:57:25.888Z,95735.50
2022-11-05T03:59:53.809Z,95732.94
2022-11-05T04:02:25.580Z,95733.13
2022-11-05T04:04:55.045Z,95731.02
2022-11-05T04:07:37.855Z,95727.42
2022-11-05T04:10:18.072Z,95725.78
2022-11-05T04:12:58.164Z,95728.65
2022-11-05T04:15:26.961Z,95730.84
2022-11-05T04:17:58.984Z,95726.44
2022-11-05T04:20:38.673Z,95725.85
2022-11-05T04:23:18.818Z,95729.17
2022-11-05T04:25:46.686Z,95726.39
2022-11-05T04:28:15.167Z,95729.70
2022-11-05T04:30:46.106Z,95726.51
2022-11-05T04:33:16.026Z,95729.04
2022-11-05T04:35:46.816Z,95731.66
2022-11-05T04:38:18.413Z,95740.45
2022-11-05T04:40:47.720Z,95745.16
2022-11-05T04:43:19.204Z,95739.38
2022-11-05T04:45:47.549Z,95735.11
2022-11-05T04:48:15.315Z,95740.19
2022-11-05T04:50:43.180Z,95744.48
2022-11-05T04:53:11.336Z,95748.76
2022-11-05T04:55:39.425Z,95749.36
2022-11-05T04:58:07.313Z,95750.06
2022-11-05T05:00:35.494Z,95750.55
2022-11-05T05:03:03.651Z,95749.02
2022-11-05T05:05:31.586Z,95749.39
2022-11-05T05:08:03.681Z,95742.90
2022-11-05T05:10:32.270Z,95733.20
2022-11-05T05:13:00.093Z,95730.81
2022-11-05T05:15:27.894Z,95734.23
2022-11-05T05:17:56.400Z,95733.87
2022-11-05T05:20:42.368Z,95733.36
2022-11-05T05:23:10.947Z,95731.41
2022-11-05T05:25:39.030Z,95736.23
2022-11-05T05:28:06.896Z,95731.88
2022-11-05T05:30:34.861Z,95727.17
2022-11-05T05:33:03.985Z,95726.37
2022-11-05T05:35:31.917Z,95726.08
2022-11-05T05:37:59.876Z,95725.13
2022-11-05T05:40:27.582Z,95724.02
2022-11-05T05:42:55.866Z,95720.98
2022-11-05T05:45:23.766Z,95723.50
2022-11-05T05:47:51.731Z,95734.64
2022-11-05T05:50:19.627Z,95734.80
2022-11-05T05:52:53.593Z,95730.02
2022-11-05T05:55:21.603Z,95735.66
2022-11-05T05:57:49.605Z,95743.41
2022-11-05T06:00:17.823Z,95750.45
2022-11-05T06:02:45.759Z,95751.00
2022-11-05T06:05:13.891Z,95747.73
2022-11-05T06:07:41.785Z,95752.09
2022-11-05T06:10:09.897Z,95769.41
2022-11-05T06:12:37.666Z,95774.46
2022-11-05T06:15:05.952Z,95781.75
2022-11-05T06:17:34.081Z,95789.19
2022-11-05T06:20:01.912Z,95792.64
2022-11-05T06:22:30.410Z,95803.09
2022-11-05T06:24:58.261Z,95807.90
2022-11-05T06:27:26.068Z,95813.78
2022-11-05T06:29:54.131Z,95813.38
2022-11-05T06:32:21.926Z,95812.48
2022-11-05T06:34:49.713Z,95814.09
2022-11-05T06:37:17.521Z,95811.58
2022-11-05T06:39:45.335Z,95817.14
2022-11-05T06:42:20.561Z,95821.67
2022-11-05T06:44:48.640Z,95823.44
2022-11-05T06:47:16.468Z,95825.48
2022-11-05T06:49:44.293Z,95828.16
2022-11-05T06:52:13.804Z,95825.72
2022-11-05T06:54:43.907Z,95824.85
2022-11-05T06:57:12.435Z,95825.02
2022-11-05T06:59:41.254Z,95831.32
2022-11-05T07:02:12.898Z,95830.55
2022-11-05T07:04:41.908Z,95826.21
2022-11-05T07:07:09.953Z,95825.83
2022-11-05T07:09:40.796Z,95823.48
2022-11-05T07:12:10.317Z,95822.44
2022-11-05T07:14:38.234Z,95821.98
2022-11-05T07:17:06.145Z,95826.51
2022-11-05T07:19:34.034Z,95832.48
2022-11-05T07:22:02.058Z,95834.59
2022-11-05T07:24:29.956Z,95831.86
2022-11-05T07:26:58.070Z,95833.88
2022-11-05T07:29:26.095Z,95834.49
2022-11-05T07:31:54.156Z,95834.53
2022-11-05T07:34:22.253Z,95834.55
2022-11-05T07:36:50.137Z,95833.71
2022-11-05T07:39:18.380Z,95835.31
2022-11-05T07:41:46.317Z,95828.96
2022-11-05T07:44:14.536Z,95837.02
2022-11-05T07:46:42.488Z,95842.19
2022-11-05T07:49:10.458Z,95843.35
2022-11-05T07:51:38.522Z,95838.42
2022-11-05T07:54:06.600Z,95836.77
2022-11-05T07:56:34.681Z,95835.92
2022-11-05T07:59:03.310Z,95839.13
2022-11-05T08:01:31.551Z,95839.34
2022-11-05T08:03:59.928Z,95843.74
2022-11-05T08:06:28.325Z,95847.34
2022-11-05T08:08:57.124Z,95843.20
2022-11-05T08:11:25.457Z,95845.57
2022-11-05T08:13:55.820Z,95849.72
2022-11-05T08:16:27.260Z,95844.13
2022-11-05T08:18:56.046Z,95843.02
2022-11-05T08:21:24.240Z,95841.80
2022-11-05T08:23:53.225Z,95844.11
2022-11-05T08:26:21.584Z,95850.20
2022-11-05T08:28:52.320Z,95850.36
2022-11-05T08:31:22.740Z,95843.70
2022-11-05T08:33:52.640Z,95844.28
2022-11-05T08:36:20.863Z,95843.09
2022-11-05T08:38:49.157Z,95839.81
2022-11-05T08:41:17.360Z,95845.27
2022-11-05T08:43:46.251Z,95843.46
2022-11-05T08:46:14.715Z,95841.20
2022-11-05T08:48:47.758Z,95844.80
2022-11-05T08:51:19.738Z,95841.89
2022-11-05T08:53:48.464Z,95838.53
2022-11-05T08:56:18.677Z,95837.66
2022-11-05T08:58:49.049Z,95838.67
2022-11-05T09:01:18.636Z,95844.42
2022-11-05T09:03:51.396Z,95848.52
2022-11-05T09:06:21.731Z,95849.69
2022-11-05T09:08:50.500Z,95847.75
2022-11-05T09:11:22.211Z,95843.33
2022-11-05T09:13:50.960Z,95839.45
2022-11-05T09:16:25.443Z,95840.75
2022-11-05T09:19:07.153Z,95839.59
2022-11-05T09:21:39.620Z,95842.65
2022-11-05T09:24:09.639Z,95844.25
2022-11-05T09:26:37.788Z,95847.70
2022-11-05T09:29:10.323Z,95848.21
2022-11-05T09:31:44.867Z,95851.86
2022-11-05T09:34:13.200Z,95852.13
2022-11-05T09:36:42.904Z,95849.65
2022-11-05T09:39:13.512Z,95846.60
2022-11-05T09:41:46.424Z,95843.41
2022-11-05T09:44:22.641Z,95841.01
2022-11-05T09:47:02.606Z,95838.91
2022-11-05T09:49:40.571Z,95840.03
2022-11-05T09:52:24.649Z,95839.48
2022-11-05T09:54:54.834Z,95841.41
2022-11-05T09:57:31.103Z,95843.96
2022-11-05T10:00:06.680Z,95843.80
2022-11-05T10:02:56.956Z,95844.85
2022-11-05T10:05:30.113Z,95850.69
2022-11-05T10:08:14.250Z,95851.91
2022-11-05T10:10:55.249Z,95847.00
2022-11-05T10:13:43.820Z,95848.15
2022-11-05T10:16:31.333Z,95854.23
2022-11-05T10:19:25.195Z,95852.71
2022-11-05T10:22:13.884Z,95845.83
2022-11-05T10:24:47.942Z,95840.58
2022-11-05T10:27:41.128Z,95840.89
2022-11-05T10:30:23.817Z,95841.67
2022-11-05T10:32:56.811Z,95839.66
2022-11-05T10:35:30.889Z,95845.05
2022-11-05T10:37:59.457Z,95841.38
2022-11-05T10:40:56.330Z,95841.90
2022-11-05T10:43:43.087Z,95842.80
2022-11-05T10:46:45.835Z,95841.89
2022-11-05T10:49:33.842Z,95845.98
2022-11-05T10:52:25.471Z,95845.06
2022-11-05T10:55:02.378Z,95838.27
2022-11-05T10:57:44.321Z,95837.25
2022-11-05T11:00:28.466Z,95844.16
2022-11-05T11:03:27.685Z,95841.10
2022-11-05T11:06:13.512Z,95842.85
2022-11-05T11:08:45.523Z,95842.27
2022-11-05T11:11:41.021Z,95837.73
2022-11-05T11:14:24.619Z,95836.02
2022-11-05T11:16:57.552Z,95836.68
2022-11-05T11:19:54.715Z,95834.83
2022-11-05T11:22:28.867Z,95836.11
2022-11-05T11:25:37.192Z,95842.11
2022-11-05T11:28:34.824Z,95842.47
2022-11-05T11:31:22.646Z,95844.51
2022-11-05T11:34:13.242Z,95843.50
2022-11-05T11:36:50.701Z,95839.83
2022-11-05T11:39:35.868Z,95841.91
2022-11-05T11:42:17.255Z,95842.36
2022-11-05T11:44:50.348Z,95836.11
2022-11-05T11:47:23.058Z,95833.32
2022-11-05T11:50:02.063Z,95833.30
2022-11-05T11:52:38.191Z,95831.95
2022-11-05T11:55:20.619Z,95831.11
2022-11-05T11:57:54.023Z,95826.44
2022-11-05T12:00:27.114Z,95827.25
2022-11-05T12:03:21.727Z,95831.66
2022-11-05T12:06:16.796Z,95833.43
2022-11-05T12:09:03.679Z,95834.66
2022-11-05T12:11:48.795Z,95831.52
2022-11-05T12:14:45.155Z,95834.08
2022-11-05T12:17:35.528Z,95833.59
2022-11-05T12:20:27.947Z,95828.91
2022-11-05T12:23:18.340Z,95829.05
2022-11-05T12:26:07.414Z,95831.95
2022-11-05T12:29:17.392Z,95829.65
2022-11-05T12:32:20.659Z,95831.13
2022-11-05T12:35:18.343Z,95835.23
2022-11-05T12:38:02.023Z,95836.56
2022-11-05T12:41:10.794Z,95839.10
2022-11-05T12:43:55.787Z,95842.09
2022-11-05T12:46:46.334Z,95841.59
2022-11-05T12:49:35.123Z,95845.44
2022-11-05T12:52:20.120Z,95848.46
2022-11-05T12:55:04.255Z,95849.89
2022-11-05T12:57:38.169Z,95847.98
2022-11-05T13:00:20.483Z,95844.81
2022-11-05T13:02:58.369Z,95849.11
2022-11-05T13:05:39.951Z,95848.65
2022-11-05T13:08:23.761Z,95852.02
2022-11-05T13:11:00.183Z,95853.14
2022-11-05T13:13:38.803Z,95858.27
2022-11-05T13:16:25.095Z,95856.50
2022-11-05T13:19:15.419Z,95854.91
2022-11-05T13:21:52.413Z,95855.18
2022-11-05T13:24:27.265Z,95851.14
2022-11-05T13:27:32.903Z,95851.09
2022-11-05T13:30:15.985Z,95852.61
2022-11-05T13:32:49.600Z,95849.88
2022-11-05T13:35:41.269Z,95849.67
2022-11-05T13:38:33.438Z,95858.02
2022-11-05T13:41:25.832Z,95864.13
2022-11-05T13:44:23.049Z,95870.55
2022-11-05T13:47:22.114Z,95875.08
2022-11-05T13:50:24.487Z,95874.93
2022-11-05T13:53:15.796Z,95885.71
2022-11-05T13:56:02.786Z,95888.95
2022-11-05T13:58:55.703Z,95885.89
2022-11-05T14:01:46.765Z,95886.06
2022-11-05T14:04:26.837Z,95888.14
2022-11-05T14:07:09.882Z,95892.09
2022-11-05T14:09:42.803Z,95896.27
2022-11-05T14:12:30.053Z,95895.30
2022-11-05T14:15:18.124Z,95896.90
2022-11-05T14:18:01.550Z,95897.11
2022-11-05T14:21:03.744Z,95891.48
2022-11-05T14:23:50.639Z,95895.27
2022-11-05T14:26:24.055Z,95896.67
2022-11-05T14:29:22.142Z,95898.34
2022-11-05T14:32:09.471Z,95899.12
2022-11-05T14:34:45.180Z,95899.38
2022-11-05T14:37:28.280Z,95893.08
2022-11-05T14:40:01.056Z,95895.05
2022-11-05T14:42:31.086Z,95897.05
2022-11-05T14:45:29.947Z,95892.92
2022-11-05T14:48:35.313Z,95894.52
2022-11-05T14:51:28.215Z,95892.29
2022-11-05T14:54:14.036Z,95896.65
2022-11-05T14:56:45.154Z,95899.13
2022-11-05T14:59:49.713Z,95897.86
2022-11-05T15:02:23.008Z,95894.80
2022-11-05T15:04:53.174Z,95896.79
2022-11-05T15:07:33.697Z,95897.95
2022-11-05T15:10:14.325Z,95894.19
2022-11-05T15:12:50.475Z,95898.40
2022-11-05T15:15:24.171Z,95898.11
2022-11-05T15:18:03.232Z,95899.56
2022-11-05T15:20:40.360Z,95898.27
2022-11-05T15:23:14.540Z,95901.30
2022-11-05T15:25:56.117Z,95907.06
2022-11-05T15:28:43.950Z,95904.20
2022-11-05T15:31:36.798Z,95903.64
2022-11-05T15:34:23.433Z,95903.60
2022-11-05T15:36:57.669Z,95909.92
2022-11-05T15:39:43.620Z,95907.59
2022-11-05T15:42:16.479Z,95910.12
2022-11-05T15:44:47.797Z,95914.92
2022-11-05T15:47:20.044Z,95910.22
2022-11-05T15:49:51.766Z,95906.91
2022-11-05T15:52:23.534Z,95916.42
2022-11-05T15:55:23.548Z,95919.09
2022-11-05T15:58:03.259Z,95915.82
2022-11-05T16:00:35.185Z,95919.25
2022-11-05T16:03:31.510Z,95922.77
2022-11-05T16:06:01.577Z,95931.61
2022-11-05T16:08:31.615Z,95937.61
2022-11-05T16:11:00.862Z,95932.23
2022-11-05T16:13:36.100Z,95928.77
2022-11-05T16:16:21.355Z,95931.44
2022-11-05T16:18:49.445Z,95934.26
2022-11-05T16:21:22.571Z,95935.55
2022-11-05T16:23:58.068Z,95939.27
2022-11-05T16:29:39.111Z,95943.78
2022-11-05T16:32:30.696Z,95946.02
2022-11-05T16:35:03.041Z,95951.77
2022-11-05T16:37:39.724Z,95954.52
2022-11-05T16:40:15.664Z,95958.48
2022-11-05T16:42:45.397Z,95961.66
2022-11-05T16:45:14.753Z,95960.26
2022-11-05T16:47:44.218Z,95963.73
2022-11-05T16:50:21.489Z,95968.96
2022-11-05T16:52:49.659Z,95971.82
2022-11-05T16:55:18.475Z,95971.77
2022-11-05T16:57:51.096Z,95969.14
2022-11-05T17:00:21.841Z,95968.85
2022-11-05T17:02:50.838Z,95971.10
2022-11-05T17:05:23.113Z,95970.38
2022-11-05T17:07:53.887Z,95971.48
2022-11-05T17:10:24.278Z,95968.27
2022-11-05T17:12:53.068Z,95967.01
2022-11-05T17:15:24.644Z,95965.70
2022-11-05T17:17:54.519Z,95967.44
2022-11-05T17:20:41.645Z,95967.92
2022-11-05T17:23:12.235Z,95971.71
2022-11-05T17:25:41.883Z,95971.33
2022-11-05T17:28:11.330Z,95973.58
2022-11-05T17:30:41.677Z,95976.99
2022-11-05T17:33:11.495Z,95976.41
2022-11-05T17:35:40.609Z,95981.52
2022-11-05T17:38:10.392Z,95985.66
2022-11-05T17:40:39.341Z,95987.98
2022-11-05T17:43:07.597Z,95992.08
2022-11-05T17:45:41.598Z,95992.86
2022-11-05T17:48:10.395Z,95992.80
2022-11-05T17:50:41.052Z,95993.33
2022-11-05T17:53:09.637Z,95997.11
2022-11-05T17:55:40.349Z,95996.38
2022-11-05T17:58:08.713Z,95994.74
2022-11-05T18:00:37.595Z,95993.91
2022-11-05T18:03:05.533Z,95992.11
2022-11-05T18:05:34.331Z,95990.18
2022-11-05T18:08:02.348Z,95993.23
2022-11-05T18:10:30.139Z,95997.34
2022-11-05T18:12:58.016Z,96000.57
2022-11-05T18:15:25.841Z,96002.78
2022-11-05T18:17:53.664Z,96003.22
2022-11-05T18:20:21.565Z,96006.74
2022-11-05T18:22:50.714Z,96008.38
2022-11-05T18:25:19.158Z,96006.63
2022-11-05T18:27:46.928Z,96007.93
2022-11-05T18:30:15.896Z,96007.85
2022-11-05T18:32:44.671Z,96004.86
2022-11-05T18:35:13.449Z,96006.33
2022-11-05T18:37:42.382Z,96009.16
2022-11-05T18:40:11.222Z,96014.46
2022-11-05T18:42:39.220Z,96014.45
2022-11-05T18:45:08.038Z,96015.30
2022-11-05T18:47:35.963Z,96011.98
2022-11-05T18:50:05.640Z,96013.08
2022-11-05T18:52:33.583Z,96013.07
2022-11-05T18:55:01.421Z,96017.13
2022-11-05T18:57:29.339Z,96022.65
2022-11-05T18:59:57.128Z,96023.05
2022-11-05T19:02:25.487Z,96022.66
2022-11-05T19:05:22.520Z,96021.14
2022-11-05T19:07:41.411Z,96023.61
2022-11-05T19:10:09.700Z,96025.19
2022-11-05T19:12:37.543Z,96023.08
2022-11-05T19:15:06.286Z,96026.77
2022-11-05T19:17:34.744Z,96029.66
2022-11-05T19:20:03.319Z,96032.24
2022-11-05T19:22:31.832Z,96032.76
2022-11-05T19:24:59.705Z,96031.76
2022-11-05T19:27:27.553Z,96029.88
2022-11-05T19:29:55.350Z,96034.80
2022-11-05T19:32:23.926Z,96035.23
2022-11-05T19:34:52.082Z,96032.25
2022-11-05T19:37:20.059Z,96029.45
2022-11-05T19:39:47.746Z,96029.52
2022-11-05T19:42:15.547Z,96036.02
2022-11-05T19:44:43.772Z,96050.20
2022-11-05T19:47:11.588Z,96053.66
2022-11-05T19:49:39.340Z,96057.38
2022-11-05T19:52:07.192Z,96064.41
2022-11-05T19:54:35.980Z,96068.23
2022-11-05T19:57:03.856Z,96075.89
2022-11-05T19:59:31.702Z,96076.61
2022-11-05T20:01:59.944Z,96078.02
2022-11-05T20:04:27.901Z,96075.02
2022-11-05T20:06:55.927Z,96079.00
2022-11-05T20:09:24.284Z,96080.22
2022-11-05T20:11:54.409Z,96081.89
2022-11-05T20:14:24.297Z,96081.52
2022-11-05T20:16:52.718Z,96082.99
2022-11-05T20:19:22.380Z,96087.05
2022-11-05T20:21:50.256Z,96093.63
2022-11-05T20:24:24.759Z,96093.03
2022-11-05T20:26:55.209Z,96090.87
2022-11-05T20:29:29.102Z,96095.07
2022-11-05T20:32:02.239Z,96097.02
2022-11-05T20:34:31.119Z,96099.28
2022-11-05T20:36:58.968Z,96099.48
2022-11-05T20:39:26.865Z,96100.27
2022-11-05T20:41:56.347Z,96100.80
2022-11-05T20:44:24.089Z,96099.73
2022-11-05T20:46:51.903Z,96102.87
2022-11-05T20:49:24.154Z,96103.48
2022-11-05T20:51:55.024Z,96102.95
2022-11-05T20:54:24.110Z,96103.93
2022-11-05T20:57:02.416Z,96102.73
2022-11-05T20:59:35.522Z,96107.02
2022-11-05T21:02:17.314Z,96101.73
2022-11-05T21:04:53.974Z,96100.02
2022-11-05T21:07:30.152Z,96094.55
2022-11-05T21:09:58.961Z,96093.88
2022-11-05T21:12:27.088Z,96097.86
2022-11-05T21:14:55.191Z,96099.93
2022-11-05T21:17:23.225Z,96100.25
2022-11-05T21:19:51.303Z,96096.12
2022-11-05T21:22:19.432Z,96093.86
2022-11-05T21:24:47.559Z,96098.02
2022-11-05T21:27:15.641Z,96100.36
2022-11-05T21:29:43.783Z,96099.46
2022-11-05T21:32:12.179Z,96099.27
2022-11-05T21:34:41.275Z,96099.16
2022-11-05T21:37:09.533Z,96099.77
2022-11-05T21:39:38.017Z,96099.21
2022-11-05T21:42:09.069Z,96105.56
2022-11-05T21:45:00.030Z,96107.82
2022-11-05T21:47:29.294Z,96106.30
2022-11-05T21:50:00.089Z,96105.29
2022-11-05T21:52:45.959Z,96106.98
2022-11-05T21:55:26.162Z,96108.09
2022-11-05T21:58:16.339Z,96112.48
2022-11-05T22:00:44.343Z,96112.59
2022-11-05T22:03:13.701Z,96112.05
2022-11-05T22:05:41.834Z,96113.89
2022-11-05T22:08:10.467Z,96114.96
2022-11-05T22:10:38.776Z,96116.08
2022-11-05T22:13:06.888Z,96116.08
2022-11-05T22:15:35.001Z,96121.95
2022-11-05T22:18:03.676Z,96122.19
2022-11-05T22:20:32.242Z,96121.59
2022-11-05T22:23:00.248Z,96125.65
2022-11-05T22:25:28.201Z,96124.96
2022-11-05T22:27:56.384Z,96127.25
2022-11-05T22:30:24.375Z,96121.50
2022-11-05T22:32:52.085Z,96123.09
2022-11-05T22:35:21.783Z,96122.15
2022-11-05T22:37:53.700Z,96125.61
2022-11-05T22:40:23.973Z,96129.16
2022-11-05T22:42:55.676Z,96127.60
2022-11-05T22:45:23.701Z,96127.91
2022-11-05T22:47:53.200Z,96135.41
2022-11-05T22:50:21.224Z,96132.47
2022-11-05T22:52:49.387Z,96128.77
2022-11-05T22:55:17.342Z,96130.30
2022-11-05T22:57:45.451Z,96131.87
2022-11-05T23:00:17.383Z,96130.77
2022-11-05T23:02:45.527Z,96131.52
2022-11-05T23:05:15.875Z,96132.02
2022-11-05T23:08:03.721Z,96133.97
2022-11-05T23:10:51.139Z,96135.23
2022-11-05T23:13:19.110Z,96137.05
2022-11-05T23:16:01.104Z,96131.11
2022-11-05T23:18:44.122Z,96132.08
2022-11-05T23:21:32.160Z,96135.55
2022-11-05T23:24:07.296Z,96136.27
2022-11-05T23:26:51.806Z,96132.67
2022-11-05T23:29:26.735Z,96133.39
2022-11-05T23:32:15.031Z,96132.61
2022-11-05T23:34:43.186Z,96132.45
2022-11-05T23:37:22.340Z,96136.05
2022-11-05T23:39:50.516Z,96141.80
2022-11-05T23:42:32.689Z,96140.09
2022-11-05T23:45:14.640Z,96137.31
2022-11-05T23:48:03.134Z,96140.37
2022-11-05T23:50:36.934Z,96148.60
2022-11-05T23:53:08.291Z,96148.23
2022-11-05T23:55:36.715Z,96149.79
2022-11-05T23:58:05.073Z,96154.48
